sensor_id;sensor_type;location;lat;lon;timestamp;pressure;altitude;pressure_sealevel;temperature;humidity
19845;BME280;10083;51.038;7.012;2023-07-02T04:13:21;111055.00;;;17.54;100.00
19845;BME280;10083;51.038;7.012;2023-07-02T04:15:48;111058.16;;;17.50;100.00
19845;BME280;10083;51.038;7.012;2023-07-02T04:18:24;111034.06;;;17.53;100.00
19845;BME280;10083;51.038;7.012;2023-07-02T04:20:52;111066.06;;;17.40;100.00
19845;BME280;10083;51.038;7.012;2023-07-02T04:23:33;111200.44;;;17.37;100.00
19845;BME280;10083;51.038;7.012;2023-07-02T04:26:00;111388.66;;;17.74;100.00
19845;BME280;10083;51.038;7.012;2023-07-02T04:28:31;111294.59;;;17.68;100.00
19845;BME280;10083;51.038;7.012;2023-07-02T04:30:59;111262.09;;;17.60;100.00
19845;BME280;10083;51.038;7.012;2023-07-02T04:33:26;111252.13;;;17.68;100.00
19845;BME280;10083;51.038;7.012;2023-07-02T04:36:01;111220.50;;;17.69;100.00
19845;BME280;10083;51.038;7.012;2023-07-02T04:38:29;111176.56;;;17.41;100.00
19845;BME280;10083;51.038;7.012;2023-07-02T04:40:56;111381.16;;;17.65;100.00
19845;BME280;10083;51.038;7.012;2023-07-02T04:43:27;111419.31;;;17.73;100.00
19845;BME280;10083;51.038;7.012;2023-07-02T04:45:57;111396.69;;;17.66;100.00
19845;BME280;10083;51.038;7.012;2023-07-02T04:48:25;111526.91;;;17.80;100.00
19845;BME280;10083;51.038;7.012;2023-07-02T04:50:52;111555.72;;;17.71;100.00
19845;BME280;10083;51.038;7.012;2023-07-02T04:53:37;111566.25;;;17.60;100.00
19845;BME280;10083;51.038;7.012;2023-07-02T04:56:04;111637.38;;;17.72;100.00
19845;BME280;10083;51.038;7.012;2023-07-02T04:58:33;111719.47;;;17.70;100.00
19845;BME280;10083;51.038;7.012;2023-07-02T05:01:01;111715.56;;;17.68;100.00
19845;BME280;10083;51.038;7.012;2023-07-02T05:03:37;111805.59;;;17.63;100.00
19845;BME280;10083;51.038;7.012;2023-07-02T05:06:04;111905.84;;;17.97;100.00
19845;BME280;10083;51.038;7.012;2023-07-02T05:08:31;111728.25;;;17.97;100.00
19845;BME280;10083;51.038;7.012;2023-07-02T05:11:10;111607.56;;;17.95;100.00
19845;BME280;10083;51.038;7.012;2023-07-02T05:13:37;111584.22;;;17.97;100.00
19845;BME280;10083;51.038;7.012;2023-07-02T05:16:10;111724.41;;;18.25;100.00
19845;BME280;10083;51.038;7.012;2023-07-02T05:18:37;111517.25;;;18.20;100.00
19845;BME280;10083;51.038;7.012;2023-07-02T05:21:18;111346.13;;;18.13;100.00
19845;BME280;10083;51.038;7.012;2023-07-02T05:23:45;111277.47;;;18.07;100.00
19845;BME280;10083;51.038;7.012;2023-07-02T05:26:27;111305.50;;;18.15;100.00
19845;BME280;10083;51.038;7.012;2023-07-02T05:28:54;111251.66;;;18.19;100.00
19845;BME280;10083;51.038;7.012;2023-07-02T05:31:22;111293.84;;;18.16;100.00
19845;BME280;10083;51.038;7.012;2023-07-02T05:33:49;111341.28;;;18.42;100.00
19845;BME280;10083;51.038;7.012;2023-07-02T05:36:27;111275.09;;;18.26;100.00
19845;BME280;10083;51.038;7.012;2023-07-02T05:38:54;111302.47;;;18.27;100.00
19845;BME280;10083;51.038;7.012;2023-07-02T05:41:24;111425.28;;;18.32;100.00
19845;BME280;10083;51.038;7.012;2023-07-02T05:43:56;111488.78;;;18.32;100.00
19845;BME280;10083;51.038;7.012;2023-07-02T05:46:52;111432.13;;;18.28;100.00
19845;BME280;10083;51.038;7.012;2023-07-02T05:49:19;111503.44;;;18.41;100.00
19845;BME280;10083;51.038;7.012;2023-07-02T05:51:53;111546.84;;;18.56;100.00
19845;BME280;10083;51.038;7.012;2023-07-02T05:54:20;111361.22;;;18.18;100.00
19845;BME280;10083;51.038;7.012;2023-07-02T05:56:47;111338.03;;;18.37;100.00
19845;BME280;10083;51.038;7.012;2023-07-02T05:59:14;111414.97;;;18.52;100.00
19845;BME280;10083;51.038;7.012;2023-07-02T06:01:46;111371.56;;;18.61;100.00
19845;BME280;10083;51.038;7.012;2023-07-02T06:04:15;111356.63;;;18.73;100.00
19845;BME280;10083;51.038;7.012;2023-07-02T06:06:46;111146.47;;;18.42;100.00
19845;BME280;10083;51.038;7.012;2023-07-02T06:09:13;111165.50;;;18.67;100.00
19845;BME280;10083;51.038;7.012;2023-07-02T06:11:40;111124.50;;;18.89;100.00
19845;BME280;10083;51.038;7.012;2023-07-02T06:14:08;110833.84;;;18.68;100.00
19845;BME280;10083;51.038;7.012;2023-07-02T06:16:35;110683.97;;;18.57;100.00
19845;BME280;10083;51.038;7.012;2023-07-02T06:19:02;110725.84;;;18.67;100.00
19845;BME280;10083;51.038;7.012;2023-07-02T06:24:58;110480.00;;;18.84;100.00
19845;BME280;10083;51.038;7.012;2023-07-02T06:27:30;110275.06;;;18.65;100.00
19845;BME280;10083;51.038;7.012;2023-07-02T06:29:57;110183.81;;;18.87;100.00
19845;BME280;10083;51.038;7.012;2023-07-02T06:32:27;109927.28;;;18.78;100.00
19845;BME280;10083;51.038;7.012;2023-07-02T06:34:54;109869.47;;;19.01;100.00
19845;BME280;10083;51.038;7.012;2023-07-02T06:37:24;109726.31;;;19.13;100.00
19845;BME280;10083;51.038;7.012;2023-07-02T06:39:51;109499.53;;;19.12;100.00
19845;BME280;10083;51.038;7.012;2023-07-02T06:42:25;109318.25;;;18.91;100.00
19845;BME280;10083;51.038;7.012;2023-07-02T06:44:53;109087.22;;;18.92;100.00
19845;BME280;10083;51.038;7.012;2023-07-02T06:47:26;108875.09;;;18.81;100.00
19845;BME280;10083;51.038;7.012;2023-07-02T06:49:53;108916.34;;;19.12;100.00
19845;BME280;10083;51.038;7.012;2023-07-02T06:52:43;108770.28;;;19.24;100.00
19845;BME280;10083;51.038;7.012;2023-07-02T06:55:11;108658.16;;;19.42;100.00
19845;BME280;10083;51.038;7.012;2023-07-02T06:57:56;108490.63;;;19.75;100.00
19845;BME280;10083;51.038;7.012;2023-07-02T07:00:23;108131.13;;;19.58;100.00
19845;BME280;10083;51.038;7.012;2023-07-02T07:02:51;107824.00;;;19.49;100.00
19845;BME280;10083;51.038;7.012;2023-07-02T07:05:26;107668.41;;;19.58;100.00
19845;BME280;10083;51.038;7.012;2023-07-02T07:07:53;107558.09;;;19.66;100.00
19845;BME280;10083;51.038;7.012;2023-07-02T07:10:20;107466.53;;;19.87;100.00
19845;BME280;10083;51.038;7.012;2023-07-02T07:13:14;107283.72;;;19.78;100.00
19845;BME280;10083;51.038;7.012;2023-07-02T07:15:45;107040.56;;;19.79;100.00
19845;BME280;10083;51.038;7.012;2023-07-02T07:18:12;106823.22;;;19.91;100.00
19845;BME280;10083;51.038;7.012;2023-07-02T07:21:18;106556.19;;;19.83;100.00
19845;BME280;10083;51.038;7.012;2023-07-02T07:23:45;106233.16;;;20.18;100.00
19845;BME280;10083;51.038;7.012;2023-07-02T07:26:12;105888.88;;;20.07;100.00
19845;BME280;10083;51.038;7.012;2023-07-02T07:28:40;105357.09;;;20.08;100.00
19845;BME280;10083;51.038;7.012;2023-07-02T07:31:07;105049.22;;;19.69;100.00
19845;BME280;10083;51.038;7.012;2023-07-02T07:33:35;104717.34;;;19.82;100.00
19845;BME280;10083;51.038;7.012;2023-07-02T07:39:12;104000.94;;;19.82;100.00
19845;BME280;10083;51.038;7.012;2023-07-02T07:45:39;103730.72;;;20.43;100.00
19845;BME280;10083;51.038;7.012;2023-07-02T07:48:06;103636.94;;;20.59;100.00
19845;BME280;10083;51.038;7.012;2023-07-02T07:50:33;103514.28;;;20.63;100.00
19845;BME280;10083;51.038;7.012;2023-07-02T07:56:25;103270.72;;;20.37;100.00
19845;BME280;10083;51.038;7.012;2023-07-02T08:02:08;103173.94;;;20.23;100.00
19845;BME280;10083;51.038;7.012;2023-07-02T08:04:39;103251.09;;;20.59;100.00
19845;BME280;10083;51.038;7.012;2023-07-02T08:07:06;103197.88;;;20.48;100.00
19845;BME280;10083;51.038;7.012;2023-07-02T08:12:40;103124.16;;;20.88;100.00
19845;BME280;10083;51.038;7.012;2023-07-02T08:15:47;103135.31;;;20.79;100.00
19845;BME280;10083;51.038;7.012;2023-07-02T08:21:21;103124.75;;;20.97;100.00
19845;BME280;10083;51.038;7.012;2023-07-02T08:23:54;103067.75;;;21.22;100.00
19845;BME280;10083;51.038;7.012;2023-07-02T08:26:23;103024.38;;;20.84;100.00
19845;BME280;10083;51.038;7.012;2023-07-02T08:31:55;102959.81;;;20.58;100.00
19845;BME280;10083;51.038;7.012;2023-07-02T08:34:30;102969.59;;;20.63;100.00
19845;BME280;10083;51.038;7.012;2023-07-02T08:36:59;102918.00;;;20.59;100.00
19845;BME280;10083;51.038;7.012;2023-07-02T08:39:34;102873.75;;;20.80;100.00
19845;BME280;10083;51.038;7.012;2023-07-02T08:42:05;102854.97;;;21.53;100.00
19845;BME280;10083;51.038;7.012;2023-07-02T08:47:48;102717.22;;;21.41;100.00
19845;BME280;10083;51.038;7.012;2023-07-02T08:50:40;102659.34;;;21.58;100.00
19845;BME280;10083;51.038;7.012;2023-07-02T08:53:08;102611.06;;;21.13;100.00
19845;BME280;10083;51.038;7.012;2023-07-02T08:55:35;102550.06;;;21.17;100.00
19845;BME280;10083;51.038;7.012;2023-07-02T08:58:04;102491.41;;;21.52;100.00
19845;BME280;10083;51.038;7.012;2023-07-02T09:00:31;102419.28;;;21.38;100.00
19845;BME280;10083;51.038;7.012;2023-07-02T09:03:11;102349.81;;;21.68;100.00
19845;BME280;10083;51.038;7.012;2023-07-02T09:05:48;102262.88;;;21.60;100.00
19845;BME280;10083;51.038;7.012;2023-07-02T09:08:27;102257.25;;;22.04;100.00
19845;BME280;10083;51.038;7.012;2023-07-02T09:11:08;102218.63;;;22.13;100.00
19845;BME280;10083;51.038;7.012;2023-07-02T09:13:46;102180.25;;;21.97;100.00
19845;BME280;10083;51.038;7.012;2023-07-02T09:16:23;102110.28;;;21.96;100.00
19845;BME280;10083;51.038;7.012;2023-07-02T09:18:58;102110.47;;;22.10;100.00
19845;BME280;10083;51.038;7.012;2023-07-02T09:21:26;102079.41;;;22.49;100.00
19845;BME280;10083;51.038;7.012;2023-07-02T09:23:55;102086.59;;;22.33;100.00
19845;BME280;10083;51.038;7.012;2023-07-02T09:26:38;102116.31;;;22.39;100.00
19845;BME280;10083;51.038;7.012;2023-07-02T09:29:08;102097.34;;;22.19;100.00
19845;BME280;10083;51.038;7.012;2023-07-02T09:31:43;102096.34;;;22.20;100.00
19845;BME280;10083;51.038;7.012;2023-07-02T09:34:10;102101.22;;;22.32;100.00
19845;BME280;10083;51.038;7.012;2023-07-02T09:36:58;102096.34;;;22.20;100.00
19845;BME280;10083;51.038;7.012;2023-07-02T09:39:28;102124.25;;;22.07;100.00
19845;BME280;10083;51.038;7.012;2023-07-02T09:41:57;102121.69;;;22.04;100.00
19845;BME280;10083;51.038;7.012;2023-07-02T09:44:28;102119.13;;;22.01;100.00
19845;BME280;10083;51.038;7.012;2023-07-02T09:47:00;102141.91;;;22.00;100.00
19845;BME280;10083;51.038;7.012;2023-07-02T09:49:32;102140.41;;;22.12;100.00
19845;BME280;10083;51.038;7.012;2023-07-02T09:51:59;102152.66;;;22.22;100.00
19845;BME280;10083;51.038;7.012;2023-07-02T09:54:28;102126.88;;;22.28;100.00
19845;BME280;10083;51.038;7.012;2023-07-02T09:57:11;102163.41;;;22.44;100.00
19845;BME280;10083;51.038;7.012;2023-07-02T09:59:38;102188.19;;;21.83;100.00
19845;BME280;10083;51.038;7.012;2023-07-02T10:02:08;102191.09;;;21.60;100.00
19845;BME280;10083;51.038;7.012;2023-07-02T10:04:42;102228.88;;;21.29;100.00
19845;BME280;10083;51.038;7.012;2023-07-02T10:07:11;102210.22;;;21.40;100.00
19845;BME280;10083;51.038;7.012;2023-07-02T10:09:43;102241.50;;;21.31;100.00
19845;BME280;10083;51.038;7.012;2023-07-02T10:12:19;102254.16;;;20.90;100.00
19845;BME280;10083;51.038;7.012;2023-07-02T10:14:49;102295.03;;;21.10;100.00
19845;BME280;10083;51.038;7.012;2023-07-02T10:17:26;102320.56;;;21.51;100.00
19845;BME280;10083;51.038;7.012;2023-07-02T10:19:57;102339.38;;;21.98;100.00
19845;BME280;10083;51.038;7.012;2023-07-02T10:22:24;102339.03;;;22.44;100.00
19845;BME280;10083;51.038;7.012;2023-07-02T10:24:57;102311.97;;;22.40;100.00
19845;BME280;10083;51.038;7.012;2023-07-02T10:27:36;102321.63;;;22.47;100.00
19845;BME280;10083;51.038;7.012;2023-07-02T10:30:04;102324.41;;;22.27;100.00
19845;BME280;10083;51.038;7.012;2023-07-02T10:32:32;102340.00;;;22.04;100.00
19845;BME280;10083;51.038;7.012;2023-07-02T10:35:01;102358.69;;;21.93;100.00
19845;BME280;10083;51.038;7.012;2023-07-02T10:37:36;102379.16;;;21.83;100.00
19845;BME280;10083;51.038;7.012;2023-07-02T10:40:06;102361.53;;;22.31;100.00
19845;BME280;10083;51.038;7.012;2023-07-02T10:42:46;102335.44;;;22.05;100.00
19845;BME280;10083;51.038;7.012;2023-07-02T10:45:14;102346.16;;;22.09;100.00
19845;BME280;10083;51.038;7.012;2023-07-02T10:47:41;102341.22;;;21.97;100.00
19845;BME280;10083;51.038;7.012;2023-07-02T10:50:18;102409.94;;;22.46;100.00
19845;BME280;10083;51.038;7.012;2023-07-02T10:52:46;102454.06;;;22.57;100.00
19845;BME280;10083;51.038;7.012;2023-07-02T10:55:18;102472.78;;;22.85;100.00
19845;BME280;10083;51.038;7.012;2023-07-02T11:00:52;102471.25;;;23.35;100.00
19845;BME280;10083;51.038;7.012;2023-07-02T11:03:21;102512.81;;;23.43;100.00
19845;BME280;10083;51.038;7.012;2023-07-02T11:05:49;102547.19;;;22.91;100.00
19845;BME280;10083;51.038;7.012;2023-07-02T11:08:39;102607.25;;;22.73;100.00
19845;BME280;10083;51.038;7.012;2023-07-02T11:11:08;102617.81;;;22.80;100.00
19845;BME280;10083;51.038;7.012;2023-07-02T11:13:44;102633.88;;;23.08;100.00
19845;BME280;10083;51.038;7.012;2023-07-02T11:16:18;102611.06;;;23.28;100.00
19845;BME280;10083;51.038;7.012;2023-07-02T11:18:46;102572.25;;;23.77;100.00
19845;BME280;10083;51.038;7.012;2023-07-02T11:21:26;102370.22;;;25.77;100.00
19845;BME280;10083;51.038;7.012;2023-07-02T11:24:01;101995.03;;;26.43;100.00
19845;BME280;10083;51.038;7.012;2023-07-02T11:26:36;101858.63;;;26.42;100.00
19845;BME280;10083;51.038;7.012;2023-07-02T11:29:10;101933.88;;;25.20;100.00
19845;BME280;10083;51.038;7.012;2023-07-02T11:31:38;102043.22;;;24.38;100.00
19845;BME280;10083;51.038;7.012;2023-07-02T11:34:11;102139.53;;;23.33;100.00
19845;BME280;10083;51.038;7.012;2023-07-02T11:36:41;102402.16;;;22.18;100.00
19845;BME280;10083;51.038;7.012;2023-07-02T11:39:11;102961.72;;;21.67;100.00
19845;BME280;10083;51.038;7.012;2023-07-02T11:41:43;103090.44;;;21.52;100.00
19845;BME280;10083;51.038;7.012;2023-07-02T11:44:11;103127.78;;;20.88;100.00
19845;BME280;10083;51.038;7.012;2023-07-02T11:46:40;103185.84;;;20.56;100.00
19845;BME280;10083;51.038;7.012;2023-07-02T11:49:07;103264.16;;;20.82;100.00
19845;BME280;10083;51.038;7.012;2023-07-02T11:51:35;103301.16;;;20.91;100.00
19845;BME280;10083;51.038;7.012;2023-07-02T11:54:02;103336.94;;;21.14;100.00
19845;BME280;10083;51.038;7.012;2023-07-02T11:56:31;103310.28;;;21.88;100.00
19845;BME280;10083;51.038;7.012;2023-07-02T11:58:59;103251.09;;;23.02;100.00
19845;BME280;10083;51.038;7.012;2023-07-02T12:01:26;102996.22;;;25.94;100.00
19845;BME280;10083;51.038;7.012;2023-07-02T12:03:53;102669.63;;;27.27;100.00
19845;BME280;10083;51.038;7.012;2023-07-02T12:06:40;102407.72;;;24.84;100.00
19845;BME280;10083;51.038;7.012;2023-07-02T12:09:07;102386.25;;;26.57;100.00
19845;BME280;10083;51.038;7.012;2023-07-02T12:11:48;102173.38;;;27.39;100.00
19845;BME280;10083;51.038;7.012;2023-07-02T12:14:16;102108.19;;;28.27;100.00
19845;BME280;10083;51.038;7.012;2023-07-02T12:16:43;102090.91;;;27.76;100.00
19845;BME280;10083;51.038;7.012;2023-07-02T12:19:10;102198.06;;;25.93;100.00
19845;BME280;10083;51.038;7.012;2023-07-02T12:21:42;102245.91;;;25.01;100.00
19845;BME280;10083;51.038;7.012;2023-07-02T12:24:09;102277.56;;;24.59;100.00
19845;BME280;10083;51.038;7.012;2023-07-02T12:26:42;102329.84;;;24.23;100.00
19845;BME280;10083;51.038;7.012;2023-07-02T12:29:09;102238.84;;;25.56;100.00
19845;BME280;10083;51.038;7.012;2023-07-02T12:31:38;102243.19;;;25.45;100.00
19845;BME280;10083;51.038;7.012;2023-07-02T12:34:05;102122.28;;;26.58;100.00
19845;BME280;10083;51.038;7.012;2023-07-02T12:36:32;102054.00;;;24.71;100.00
19845;BME280;10083;51.038;7.012;2023-07-02T12:38:59;102115.47;;;24.51;100.00
19845;BME280;10083;51.038;7.012;2023-07-02T12:41:28;102102.09;;;24.61;100.00
19845;BME280;10083;51.038;7.012;2023-07-02T12:43:56;102129.38;;;24.01;100.00
19845;BME280;10083;51.038;7.012;2023-07-02T12:46:26;102141.25;;;23.69;100.00
19845;BME280;10083;51.038;7.012;2023-07-02T12:48:55;102162.50;;;23.97;100.00
19845;BME280;10083;51.038;7.012;2023-07-02T12:51:23;102102.44;;;25.00;100.00
19845;BME280;10083;51.038;7.012;2023-07-02T12:53:50;102108.94;;;24.54;100.00
19845;BME280;10083;51.038;7.012;2023-07-02T12:56:17;102125.38;;;24.38;100.00
19845;BME280;10083;51.038;7.012;2023-07-02T12:58:47;102067.66;;;25.15;100.00
19845;BME280;10083;51.038;7.012;2023-07-02T13:01:16;102063.66;;;25.63;100.00
19845;BME280;10083;51.038;7.012;2023-07-02T13:03:47;102004.09;;;26.71;100.00
19845;BME280;10083;51.038;7.012;2023-07-02T13:06:16;102030.97;;;26.40;100.00
19845;BME280;10083;51.038;7.012;2023-07-02T13:08:43;101905.16;;;28.61;100.00
19845;BME280;10083;51.038;7.012;2023-07-02T13:11:10;101822.16;;;28.30;100.00
19845;BME280;10083;51.038;7.012;2023-07-02T13:13:37;101861.13;;;28.26;100.00
19845;BME280;10083;51.038;7.012;2023-07-02T13:19:29;101676.66;;;31.50;100.00
19845;BME280;10083;51.038;7.012;2023-07-02T13:22:01;101671.63;;;31.82;100.00
19845;BME280;10083;51.038;7.012;2023-07-02T13:24:32;101587.94;;;30.65;100.00
19845;BME280;10083;51.038;7.012;2023-07-02T13:27:26;101608.47;;;30.72;100.00
19845;BME280;10083;51.038;7.012;2023-07-02T13:29:53;101735.53;;;29.20;100.00
19845;BME280;10083;51.038;7.012;2023-07-02T13:32:21;101731.13;;;28.86;100.00
19845;BME280;10083;51.038;7.012;2023-07-02T13:34:48;101860.72;;;27.13;100.00
19845;BME280;10083;51.038;7.012;2023-07-02T13:37:46;102004.41;;;25.87;100.00
19845;BME280;10083;51.038;7.012;2023-07-02T13:40:13;101965.66;;;27.69;100.00
19845;BME280;10083;51.038;7.012;2023-07-02T13:43:01;101823.53;;;27.79;100.00
19845;BME280;10083;51.038;7.012;2023-07-02T13:45:29;101895.47;;;28.55;100.00
19845;BME280;10083;51.038;7.012;2023-07-02T13:47:56;101831.69;;;28.60;100.00
19845;BME280;10083;51.038;7.012;2023-07-02T13:53:48;102012.91;;;26.76;100.00
19845;BME280;10083;51.038;7.012;2023-07-02T13:59:12;102058.66;;;25.70;100.00
19845;BME280;10083;51.038;7.012;2023-07-02T14:01:44;102064.34;;;25.52;100.00
19845;BME280;10083;51.038;7.012;2023-07-02T14:04:12;102137.47;;;25.67;100.00
19845;BME280;10083;51.038;7.012;2023-07-02T14:06:40;102057.09;;;26.33;100.00
19845;BME280;10083;51.038;7.012;2023-07-02T14:09:08;102044.72;;;26.14;100.00
19845;BME280;10083;51.038;7.012;2023-07-02T14:11:37;102098.88;;;25.71;100.00
19845;BME280;10083;51.038;7.012;2023-07-02T14:18:38;102063.47;;;25.52;100.00
19845;BME280;10083;51.038;7.012;2023-07-02T14:21:05;101959.66;;;26.12;100.00
19845;BME280;10083;51.038;7.012;2023-07-02T14:23:42;101966.69;;;26.93;100.00
19845;BME280;10083;51.038;7.012;2023-07-02T14:26:10;101939.38;;;27.65;100.00
19845;BME280;10083;51.038;7.012;2023-07-02T14:39:58;101765.56;;;29.46;100.00
19845;BME280;10083;51.038;7.012;2023-07-02T14:42:27;101816.19;;;29.24;100.00
19845;BME280;10083;51.038;7.012;2023-07-02T14:44:54;101937.34;;;26.94;100.00
19845;BME280;10083;51.038;7.012;2023-07-02T14:47:21;102057.91;;;25.94;100.00
19845;BME280;10083;51.038;7.012;2023-07-02T14:57:26;102114.44;;;26.25;100.00
19845;BME280;10083;51.038;7.012;2023-07-02T14:59:53;101983.91;;;27.33;100.00
19845;BME280;10083;51.038;7.012;2023-07-02T15:02:20;101948.22;;;28.40;100.00
19845;BME280;10083;51.038;7.012;2023-07-02T15:04:48;101889.91;;;27.87;100.00
19845;BME280;10083;51.038;7.012;2023-07-02T15:11:17;101819.41;;;28.86;100.00
19845;BME280;10083;51.038;7.012;2023-07-02T15:14:54;101909.28;;;27.85;100.00
19845;BME280;10083;51.038;7.012;2023-07-02T16:40:45;102363.22;;;23.97;100.00
19845;BME280;10083;51.038;7.012;2023-07-02T16:43:12;102338.84;;;24.25;100.00
19845;BME280;10083;51.038;7.012;2023-07-02T16:45:40;102355.91;;;24.30;100.00
19845;BME280;10083;51.038;7.012;2023-07-02T16:48:07;102370.34;;;24.00;100.00
19845;BME280;10083;51.038;7.012;2023-07-02T16:50:36;102398.47;;;23.69;100.00
19845;BME280;10083;51.038;7.012;2023-07-02T16:53:02;102433.59;;;23.23;100.00
19845;BME280;10083;51.038;7.012;2023-07-02T16:59:36;102383.50;;;24.43;100.00
19845;BME280;10083;51.038;7.012;2023-07-02T17:02:05;102357.31;;;24.22;100.00
19845;BME280;10083;51.038;7.012;2023-07-02T17:04:34;102377.00;;;24.11;100.00
19845;BME280;10083;51.038;7.012;2023-07-02T17:07:02;102379.03;;;24.08;100.00
19845;BME280;10083;51.038;7.012;2023-07-02T17:09:36;102401.91;;;24.24;100.00
19845;BME280;10083;51.038;7.012;2023-07-02T17:12:07;102414.09;;;24.01;100.00
19845;BME280;10083;51.038;7.012;2023-07-02T17:17:37;102491.59;;;23.30;100.00
19845;BME280;10083;51.038;7.012;2023-07-02T17:20:12;102466.59;;;23.37;100.00
19845;BME280;10083;51.038;7.012;2023-07-02T17:22:39;102506.06;;;23.13;100.00
19845;BME280;10083;51.038;7.012;2023-07-02T17:28:13;102540.50;;;23.17;100.00
19845;BME280;10083;51.038;7.012;2023-07-02T17:30:47;102551.91;;;23.27;100.00
19845;BME280;10083;51.038;7.012;2023-07-02T17:33:17;102559.19;;;23.08;100.00
19845;BME280;10083;51.038;7.012;2023-07-02T17:36:00;102571.47;;;23.18;100.00
19845;BME280;10083;51.038;7.012;2023-07-02T17:38:28;102573.84;;;23.25;100.00
19845;BME280;10083;51.038;7.012;2023-07-02T17:40:54;102572.94;;;23.25;100.00
19845;BME280;10083;51.038;7.012;2023-07-02T17:43:24;102592.66;;;23.13;100.00
19845;BME280;10083;51.038;7.012;2023-07-02T17:45:54;102595.03;;;22.81;100.00
19845;BME280;10083;51.038;7.012;2023-07-02T17:48:57;102570.97;;;22.89;100.00
19845;BME280;10083;51.038;7.012;2023-07-02T17:51:24;102559.22;;;22.87;100.00
19845;BME280;10083;51.038;7.012;2023-07-02T17:57:01;102542.00;;;22.85;100.00
19845;BME280;10083;51.038;7.012;2023-07-02T17:59:28;102539.09;;;23.09;100.00
19845;BME280;10083;51.038;7.012;2023-07-02T18:01:56;102533.84;;;23.04;100.00
19845;BME280;10083;51.038;7.012;2023-07-02T18:04:26;102546.47;;;22.88;100.00
19845;BME280;10083;51.038;7.012;2023-07-02T18:06:59;102533.06;;;22.82;100.00
19845;BME280;10083;51.038;7.012;2023-07-02T18:09:45;102541.53;;;22.76;100.00
19845;BME280;10083;51.038;7.012;2023-07-02T18:12:16;102544.47;;;22.71;100.00
19845;BME280;10083;51.038;7.012;2023-07-02T18:14:44;102535.13;;;22.77;100.00
19845;BME280;10083;51.038;7.012;2023-07-02T18:17:13;102544.59;;;22.48;100.00
19845;BME280;10083;51.038;7.012;2023-07-02T18:19:41;102544.13;;;22.38;100.00
19845;BME280;10083;51.038;7.012;2023-07-02T18:22:17;102547.78;;;22.37;100.00
19845;BME280;10083;51.038;7.012;2023-07-02T18:24:44;102547.59;;;22.42;100.00
19845;BME280;10083;51.038;7.012;2023-07-02T18:27:14;102567.50;;;22.24;100.00
19845;BME280;10083;51.038;7.012;2023-07-02T18:29:41;102571.00;;;22.27;100.00
19845;BME280;10083;51.038;7.012;2023-07-02T18:32:09;102589.16;;;22.06;100.00
19845;BME280;10083;51.038;7.012;2023-07-02T18:34:41;102604.91;;;22.22;100.00
19845;BME280;10083;51.038;7.012;2023-07-02T18:37:08;102624.47;;;22.11;100.00
19845;BME280;10083;51.038;7.012;2023-07-02T18:39:36;102645.34;;;21.89;100.00
19845;BME280;10083;51.038;7.012;2023-07-02T18:42:10;102651.50;;;21.95;100.00
19845;BME280;10083;51.038;7.012;2023-07-02T18:44:37;102669.75;;;21.93;100.00
19845;BME280;10083;51.038;7.012;2023-07-02T18:47:08;102667.88;;;21.95;100.00
19845;BME280;10083;51.038;7.012;2023-07-02T18:49:37;102679.97;;;21.88;100.00
19845;BME280;10083;51.038;7.012;2023-07-02T18:52:08;102691.06;;;21.84;100.00
19845;BME280;10083;51.038;7.012;2023-07-02T18:54:36;102707.09;;;21.68;100.00
19845;BME280;10083;51.038;7.012;2023-07-02T19:00:04;102735.59;;;21.61;100.00
19845;BME280;10083;51.038;7.012;2023-07-02T19:02:41;102750.53;;;21.49;100.00
19845;BME280;10083;51.038;7.012;2023-07-02T19:05:08;102779.84;;;21.44;100.00
19845;BME280;10083;51.038;7.012;2023-07-02T19:07:56;102772.09;;;21.57;100.00
19845;BME280;10083;51.038;7.012;2023-07-02T19:13:09;102801.41;;;21.50;100.00
19845;BME280;10083;51.038;7.012;2023-07-02T19:15:37;102802.75;;;21.39;100.00
19845;BME280;10083;51.038;7.012;2023-07-02T19:18:05;102788.63;;;21.52;100.00
19845;BME280;10083;51.038;7.012;2023-07-02T19:20:32;102771.53;;;21.47;100.00
19845;BME280;10083;51.038;7.012;2023-07-02T19:23:04;102766.75;;;21.29;100.00
19845;BME280;10083;51.038;7.012;2023-07-02T19:25:31;102761.25;;;21.31;100.00
19845;BME280;10083;51.038;7.012;2023-07-02T19:27:58;102756.94;;;21.24;100.00
19845;BME280;10083;51.038;7.012;2023-07-02T19:30:25;102748.69;;;21.27;100.00
19845;BME280;10083;51.038;7.012;2023-07-02T19:32:54;102747.00;;;21.23;100.00
19845;BME280;10083;51.038;7.012;2023-07-02T19:35:21;102727.03;;;21.22;100.00
19845;BME280;10083;51.038;7.012;2023-07-02T19:37:48;102737.50;;;21.34;100.00
19845;BME280;10083;51.038;7.012;2023-07-02T19:40:17;102737.38;;;21.11;100.00
19845;BME280;10083;51.038;7.012;2023-07-02T19:42:44;102697.16;;;21.19;100.00
19845;BME280;10083;51.038;7.012;2023-07-02T19:45:12;102683.63;;;21.16;100.00
19845;BME280;10083;51.038;7.012;2023-07-02T19:47:39;102709.78;;;21.22;100.00
19845;BME280;10083;51.038;7.012;2023-07-02T19:50:06;102721.50;;;20.97;100.00
19845;BME280;10083;51.038;7.012;2023-07-02T19:52:56;102703.75;;;21.12;100.00
19845;BME280;10083;51.038;7.012;2023-07-02T19:55:24;102731.28;;;21.04;100.00
19845;BME280;10083;51.038;7.012;2023-07-02T19:57:51;102734.63;;;20.86;100.00
19845;BME280;10083;51.038;7.012;2023-07-02T20:00:19;102739.72;;;20.97;100.00
19845;BME280;10083;51.038;7.012;2023-07-02T20:02:46;102731.47;;;20.98;100.00
19845;BME280;10083;51.038;7.012;2023-07-02T20:05:13;102731.78;;;20.89;100.00